sensor_id;sensor_type;location;lat;lon;timestamp;temperature;humidity
67572;SHT31;54397;47.506;19.158;2023-05-10T00:00:59;14.13;67.08
67572;SHT31;54397;47.506;19.158;2023-05-10T00:04:23;14.16;66.93
67572;SHT31;54397;47.506;19.158;2023-05-10T00:07:48;13.95;67.76
67572;SHT31;54397;47.506;19.158;2023-05-10T00:11:10;13.85;67.87
67572;SHT31;54397;47.506;19.158;2023-05-10T00:14:32;14.13;67.52
67572;SHT31;54397;47.506;19.158;2023-05-10T00:17:57;14.24;67.17
67572;SHT31;54397;47.506;19.158;2023-05-10T00:21:23;14.01;67.58
67572;SHT31;54397;47.506;19.158;2023-05-10T00:24:47;13.98;68.24
67572;SHT31;54397;47.506;19.158;2023-05-10T00:28:09;14.03;68.18
67572;SHT31;54397;47.506;19.158;2023-05-10T00:31:31;14.06;68.09
67572;SHT31;54397;47.506;19.158;2023-05-10T00:34:53;13.92;68.65
67572;SHT31;54397;47.506;19.158;2023-05-10T00:38:14;13.98;68.40
67572;SHT31;54397;47.506;19.158;2023-05-10T00:41:38;13.92;68.73
67572;SHT31;54397;47.506;19.158;2023-05-10T00:45:02;13.81;69.17
67572;SHT31;54397;47.506;19.158;2023-05-10T00:48:28;13.87;68.94
67572;SHT31;54397;47.506;19.158;2023-05-10T00:51:51;13.58;70.28
67572;SHT31;54397;47.506;19.158;2023-05-10T00:55:13;13.33;70.87
67572;SHT31;54397;47.506;19.158;2023-05-10T00:58:35;13.69;70.07
67572;SHT31;54397;47.506;19.158;2023-05-10T01:01:57;13.61;70.47
67572;SHT31;54397;47.506;19.158;2023-05-10T01:05:21;13.61;70.43
67572;SHT31;54397;47.506;19.158;2023-05-10T01:08:46;13.30;71.08
67572;SHT31;54397;47.506;19.158;2023-05-10T01:12:09;13.36;71.11
67572;SHT31;54397;47.506;19.158;2023-05-10T01:15:35;13.03;72.33
67572;SHT31;54397;47.506;19.158;2023-05-10T01:18:58;13.09;72.15
67572;SHT31;54397;47.506;19.158;2023-05-10T01:30:35;13.59;70.89
67572;SHT31;54397;47.506;19.158;2023-05-10T01:33:46;13.44;70.81
67572;SHT31;54397;47.506;19.158;2023-05-10T01:37:15;13.75;70.32
67572;SHT31;54397;47.506;19.158;2023-05-10T01:48:17;13.74;70.32
67572;SHT31;54397;47.506;19.158;2023-05-10T01:51:51;13.45;70.47
67572;SHT31;54397;47.506;19.158;2023-05-10T01:55:15;13.40;71.02
67572;SHT31;54397;47.506;19.158;2023-05-10T01:58:42;13.36;71.12
67572;SHT31;54397;47.506;19.158;2023-05-10T02:02:06;13.53;70.83
67572;SHT31;54397;47.506;19.158;2023-05-10T02:05:31;13.59;70.17
67572;SHT31;54397;47.506;19.158;2023-05-10T02:08:56;13.76;69.83
67572;SHT31;54397;47.506;19.158;2023-05-10T02:12:19;13.82;69.11
67572;SHT31;54397;47.506;19.158;2023-05-10T02:15:42;13.78;69.24
67572;SHT31;54397;47.506;19.158;2023-05-10T02:19:04;13.86;69.39
67572;SHT31;54397;47.506;19.158;2023-05-10T02:22:29;13.74;69.97
67572;SHT31;54397;47.506;19.158;2023-05-10T02:26:00;13.87;69.17
67572;SHT31;54397;47.506;19.158;2023-05-10T02:29:28;13.89;68.40
67572;SHT31;54397;47.506;19.158;2023-05-10T02:32:51;13.85;68.21
67572;SHT31;54397;47.506;19.158;2023-05-10T02:36:14;13.87;67.92
67572;SHT31;54397;47.506;19.158;2023-05-10T02:39:36;13.85;67.84
67572;SHT31;54397;47.506;19.158;2023-05-10T02:43:03;13.86;67.59
67572;SHT31;54397;47.506;19.158;2023-05-10T02:46:27;13.86;67.35
67572;SHT31;54397;47.506;19.158;2023-05-10T02:49:49;13.58;67.74
67572;SHT31;54397;47.506;19.158;2023-05-10T02:53:15;13.66;67.48
67572;SHT31;54397;47.506;19.158;2023-05-10T02:56:47;13.65;67.27
67572;SHT31;54397;47.506;19.158;2023-05-10T03:00:12;13.65;67.03
67572;SHT31;54397;47.506;19.158;2023-05-10T03:03:36;13.59;67.26
67572;SHT31;54397;47.506;19.158;2023-05-10T03:07:00;13.78;66.49
67572;SHT31;54397;47.506;19.158;2023-05-10T03:10:29;13.38;67.26
67572;SHT31;54397;47.506;19.158;2023-05-10T03:17:48;13.23;67.97
67572;SHT31;54397;47.506;19.158;2023-05-10T03:21:15;13.34;67.91
67572;SHT31;54397;47.506;19.158;2023-05-10T03:24:40;13.37;67.44
67572;SHT31;54397;47.506;19.158;2023-05-10T03:28:04;13.33;67.85
67572;SHT31;54397;47.506;19.158;2023-05-10T03:31:28;13.48;67.92
67572;SHT31;54397;47.506;19.158;2023-05-10T03:34:52;13.55;67.83
67572;SHT31;54397;47.506;19.158;2023-05-10T03:38:18;13.65;67.66
67572;SHT31;54397;47.506;19.158;2023-05-10T03:41:40;13.75;67.55
67572;SHT31;54397;47.506;19.158;2023-05-10T03:45:05;13.68;67.91
67572;SHT31;54397;47.506;19.158;2023-05-10T03:48:27;13.74;68.39
67572;SHT31;54397;47.506;19.158;2023-05-10T03:51:48;13.90;68.04
67572;SHT31;54397;47.506;19.158;2023-05-10T03:55:12;13.95;68.77
67572;SHT31;54397;47.506;19.158;2023-05-10T03:58:36;13.93;68.86
67572;SHT31;54397;47.506;19.158;2023-05-10T04:02:00;13.89;68.46
67572;SHT31;54397;47.506;19.158;2023-05-10T04:05:21;13.61;68.90
67572;SHT31;54397;47.506;19.158;2023-05-10T04:08:43;13.66;69.52
67572;SHT31;54397;47.506;19.158;2023-05-10T04:12:09;13.65;70.10
67572;SHT31;54397;47.506;19.158;2023-05-10T04:15:31;13.75;70.06
67572;SHT31;54397;47.506;19.158;2023-05-10T04:18:53;13.90;69.29
67572;SHT31;54397;47.506;19.158;2023-05-10T04:22:14;13.89;68.69
67572;SHT31;54397;47.506;19.158;2023-05-10T04:25:39;13.87;68.25
67572;SHT31;54397;47.506;19.158;2023-05-10T04:29:01;13.95;68.61
67572;SHT31;54397;47.506;19.158;2023-05-10T04:32:24;13.90;68.65
67572;SHT31;54397;47.506;19.158;2023-05-10T04:35:49;14.06;68.31
67572;SHT31;54397;47.506;19.158;2023-05-10T04:39:11;13.95;68.53
67572;SHT31;54397;47.506;19.158;2023-05-10T04:42:35;13.95;68.50
67572;SHT31;54397;47.506;19.158;2023-05-10T04:45:58;14.03;68.35
67572;SHT31;54397;47.506;19.158;2023-05-10T04:49:20;13.86;68.51
67572;SHT31;54397;47.506;19.158;2023-05-10T04:52:43;13.82;68.79
67572;SHT31;54397;47.506;19.158;2023-05-10T04:56:06;13.76;69.30
67572;SHT31;54397;47.506;19.158;2023-05-10T04:59:28;13.96;68.83
67572;SHT31;54397;47.506;19.158;2023-05-10T05:02:50;14.08;68.95
67572;SHT31;54397;47.506;19.158;2023-05-10T05:06:13;14.05;68.85
67572;SHT31;54397;47.506;19.158;2023-05-10T05:09:34;13.95;69.26
67572;SHT31;54397;47.506;19.158;2023-05-10T05:12:56;14.12;68.67
67572;SHT31;54397;47.506;19.158;2023-05-10T05:16:18;14.22;68.01
67572;SHT31;54397;47.506;19.158;2023-05-10T05:19:39;14.45;67.96
67572;SHT31;54397;47.506;19.158;2023-05-10T05:23:01;14.70;66.46
67572;SHT31;54397;47.506;19.158;2023-05-10T05:26:23;14.78;65.81
67572;SHT31;54397;47.506;19.158;2023-05-10T05:29:44;14.81;66.01
67572;SHT31;54397;47.506;19.158;2023-05-10T05:33:06;14.70;66.61
67572;SHT31;54397;47.506;19.158;2023-05-10T05:36:28;14.92;66.08
67572;SHT31;54397;47.506;19.158;2023-05-10T05:39:50;14.91;66.12
67572;SHT31;54397;47.506;19.158;2023-05-10T05:43:18;14.72;67.32
67572;SHT31;54397;47.506;19.158;2023-05-10T05:46:39;14.72;66.86
67572;SHT31;54397;47.506;19.158;2023-05-10T05:50:04;14.98;66.04
67572;SHT31;54397;47.506;19.158;2023-05-10T05:53:25;15.22;65.83
67572;SHT31;54397;47.506;19.158;2023-05-10T05:56:47;15.37;64.50
67572;SHT31;54397;47.506;19.158;2023-05-10T06:00:09;15.19;65.02
67572;SHT31;54397;47.506;19.158;2023-05-10T06:03:31;15.23;64.63
67572;SHT31;54397;47.506;19.158;2023-05-10T06:06:54;15.18;64.49
67572;SHT31;54397;47.506;19.158;2023-05-10T06:10:15;15.64;62.87
67572;SHT31;54397;47.506;19.158;2023-05-10T06:13:39;15.53;62.58
67572;SHT31;54397;47.506;19.158;2023-05-10T06:17:04;15.53;63.51
67572;SHT31;54397;47.506;19.158;2023-05-10T06:20:28;16.02;62.51
67572;SHT31;54397;47.506;19.158;2023-05-10T06:23:52;15.83;62.35
67572;SHT31;54397;47.506;19.158;2023-05-10T06:27:14;15.73;62.28
67572;SHT31;54397;47.506;19.158;2023-05-10T06:30:36;16.05;62.05
67572;SHT31;54397;47.506;19.158;2023-05-10T06:33:58;15.12;64.02
67572;SHT31;54397;47.506;19.158;2023-05-10T06:37:22;15.49;63.65
67572;SHT31;54397;47.506;19.158;2023-05-10T06:40:43;16.12;61.88
67572;SHT31;54397;47.506;19.158;2023-05-10T06:44:05;16.22;60.99
67572;SHT31;54397;47.506;19.158;2023-05-10T06:47:29;15.88;62.44
67572;SHT31;54397;47.506;19.158;2023-05-10T06:50:51;15.64;63.42
67572;SHT31;54397;47.506;19.158;2023-05-10T06:54:15;15.66;63.86
67572;SHT31;54397;47.506;19.158;2023-05-10T06:57:39;15.90;63.59
67572;SHT31;54397;47.506;19.158;2023-05-10T07:01:04;15.81;62.88
67572;SHT31;54397;47.506;19.158;2023-05-10T07:04:29;15.83;62.75
67572;SHT31;54397;47.506;19.158;2023-05-10T07:07:53;15.53;62.94
67572;SHT31;54397;47.506;19.158;2023-05-10T07:11:14;15.74;63.16
67572;SHT31;54397;47.506;19.158;2023-05-10T07:14:38;15.75;62.68
67572;SHT31;54397;47.506;19.158;2023-05-10T07:18:02;16.09;62.18
67572;SHT31;54397;47.506;19.158;2023-05-10T07:21:28;15.94;63.06
67572;SHT31;54397;47.506;19.158;2023-05-10T07:24:50;16.34;61.60
67572;SHT31;54397;47.506;19.158;2023-05-10T07:28:13;16.13;62.66
67572;SHT31;54397;47.506;19.158;2023-05-10T07:31:39;16.94;60.57
67572;SHT31;54397;47.506;19.158;2023-05-10T07:35:03;17.39;59.85
67572;SHT31;54397;47.506;19.158;2023-05-10T07:38:27;17.76;58.03
67572;SHT31;54397;47.506;19.158;2023-05-10T07:41:49;17.10;59.40
67572;SHT31;54397;47.506;19.158;2023-05-10T07:45:10;17.24;59.34
67572;SHT31;54397;47.506;19.158;2023-05-10T07:48:32;17.65;58.69
67572;SHT31;54397;47.506;19.158;2023-05-10T07:51:58;18.08;56.96
67572;SHT31;54397;47.506;19.158;2023-05-10T07:55:23;17.66;58.52
67572;SHT31;54397;47.506;19.158;2023-05-10T07:58:44;17.63;58.35
67572;SHT31;54397;47.506;19.158;2023-05-10T08:02:09;17.62;58.09
67572;SHT31;54397;47.506;19.158;2023-05-10T08:05:33;17.39;58.44
67572;SHT31;54397;47.506;19.158;2023-05-10T08:08:56;16.94;59.18
67572;SHT31;54397;47.506;19.158;2023-05-10T08:12:20;17.22;59.15
67572;SHT31;54397;47.506;19.158;2023-05-10T08:15:41;17.90;57.21
67572;SHT31;54397;47.506;19.158;2023-05-10T08:19:07;18.18;56.87
67572;SHT31;54397;47.506;19.158;2023-05-10T08:22:29;17.91;56.86
67572;SHT31;54397;47.506;19.158;2023-05-10T08:25:53;17.17;58.08
67572;SHT31;54397;47.506;19.158;2023-05-10T08:29:15;16.85;60.00
67572;SHT31;54397;47.506;19.158;2023-05-10T08:32:36;16.91;58.59
67572;SHT31;54397;47.506;19.158;2023-05-10T08:35:59;17.00;59.02
67572;SHT31;54397;47.506;19.158;2023-05-10T08:39:24;16.95;59.37
67572;SHT31;54397;47.506;19.158;2023-05-10T08:43:12;16.71;60.06
67572;SHT31;54397;47.506;19.158;2023-05-10T08:46:34;16.74;59.81
67572;SHT31;54397;47.506;19.158;2023-05-10T08:50:02;17.40;58.91
67572;SHT31;54397;47.506;19.158;2023-05-10T08:53:28;16.91;59.62
67572;SHT31;54397;47.506;19.158;2023-05-10T08:56:51;17.29;58.93
67572;SHT31;54397;47.506;19.158;2023-05-10T09:00:15;17.67;57.99
67572;SHT31;54397;47.506;19.158;2023-05-10T09:03:38;17.96;56.64
67572;SHT31;54397;47.506;19.158;2023-05-10T09:07:03;17.86;56.49
67572;SHT31;54397;47.506;19.158;2023-05-10T09:10:25;18.03;54.43
67572;SHT31;54397;47.506;19.158;2023-05-10T09:13:50;18.13;55.12
67572;SHT31;54397;47.506;19.158;2023-05-10T09:17:13;17.86;55.66
67572;SHT31;54397;47.506;19.158;2023-05-10T09:20:37;18.15;54.17
67572;SHT31;54397;47.506;19.158;2023-05-10T09:24:03;18.65;52.11
67572;SHT31;54397;47.506;19.158;2023-05-10T09:27:27;19.07;52.33
67572;SHT31;54397;47.506;19.158;2023-05-10T09:30:53;19.18;51.85
67572;SHT31;54397;47.506;19.158;2023-05-10T09:34:28;19.53;51.30
67572;SHT31;54397;47.506;19.158;2023-05-10T09:37:54;19.38;51.05
67572;SHT31;54397;47.506;19.158;2023-05-10T09:44:39;19.14;51.87
67572;SHT31;54397;47.506;19.158;2023-05-10T09:48:05;19.21;52.59
67572;SHT31;54397;47.506;19.158;2023-05-10T09:51:27;19.87;50.37
67572;SHT31;54397;47.506;19.158;2023-05-10T09:54:54;20.12;50.09
67572;SHT31;54397;47.506;19.158;2023-05-10T09:58:16;20.55;49.31
67572;SHT31;54397;47.506;19.158;2023-05-10T10:01:38;20.44;49.33
67572;SHT31;54397;47.506;19.158;2023-05-10T10:05:03;20.67;47.72
67572;SHT31;54397;47.506;19.158;2023-05-10T10:08:25;20.36;49.24
67572;SHT31;54397;47.506;19.158;2023-05-10T10:11:50;20.47;48.48
67572;SHT31;54397;47.506;19.158;2023-05-10T10:15:11;20.45;48.08
67572;SHT31;54397;47.506;19.158;2023-05-10T10:18:39;20.65;48.10
67572;SHT31;54397;47.506;19.158;2023-05-10T10:22:01;21.10;47.03
67572;SHT31;54397;47.506;19.158;2023-05-10T10:25:25;20.85;46.09
67572;SHT31;54397;47.506;19.158;2023-05-10T10:32:42;21.32;45.10
67572;SHT31;54397;47.506;19.158;2023-05-10T10:36:12;20.92;44.97
67572;SHT31;54397;47.506;19.158;2023-05-10T10:39:34;20.03;47.09
67572;SHT31;54397;47.506;19.158;2023-05-10T10:43:22;19.64;47.77
67572;SHT31;54397;47.506;19.158;2023-05-10T10:47:00;19.53;47.49
67572;SHT31;54397;47.506;19.158;2023-05-10T10:50:25;19.03;48.94
67572;SHT31;54397;47.506;19.158;2023-05-10T10:53:47;18.79;49.49
67572;SHT31;54397;47.506;19.158;2023-05-10T10:57:17;19.23;48.91
67572;SHT31;54397;47.506;19.158;2023-05-10T11:00:41;19.27;48.27
67572;SHT31;54397;47.506;19.158;2023-05-10T11:07:27;19.21;47.86
67572;SHT31;54397;47.506;19.158;2023-05-10T11:14:25;19.41;48.05
67572;SHT31;54397;47.506;19.158;2023-05-10T11:17:48;19.32;47.92
67572;SHT31;54397;47.506;19.158;2023-05-10T11:21:15;20.14;46.58
67572;SHT31;54397;47.506;19.158;2023-05-10T11:24:39;20.98;44.03
67572;SHT31;54397;47.506;19.158;2023-05-10T11:28:02;21.10;44.89
67572;SHT31;54397;47.506;19.158;2023-05-10T11:31:26;20.92;44.30
67572;SHT31;54397;47.506;19.158;2023-05-10T11:34:50;20.39;44.54
67572;SHT31;54397;47.506;19.158;2023-05-10T11:38:13;20.12;45.87
67572;SHT31;54397;47.506;19.158;2023-05-10T11:41:39;19.89;46.46
67572;SHT31;54397;47.506;19.158;2023-05-10T11:45:06;19.74;46.80
67572;SHT31;54397;47.506;19.158;2023-05-10T11:48:29;19.69;47.38
67572;SHT31;54397;47.506;19.158;2023-05-10T11:51:51;19.43;47.21
67572;SHT31;54397;47.506;19.158;2023-05-10T11:55:15;19.82;47.11
67572;SHT31;54397;47.506;19.158;2023-05-10T11:58:38;19.85;45.82
67572;SHT31;54397;47.506;19.158;2023-05-10T12:02:00;19.76;46.08
67572;SHT31;54397;47.506;19.158;2023-05-10T12:05:22;19.59;46.99
67572;SHT31;54397;47.506;19.158;2023-05-10T12:08:47;19.65;46.33
67572;SHT31;54397;47.506;19.158;2023-05-10T12:12:17;19.45;46.38
67572;SHT31;54397;47.506;19.158;2023-05-10T12:15:39;19.32;46.89
67572;SHT31;54397;47.506;19.158;2023-05-10T12:19:00;19.20;47.60
67572;SHT31;54397;47.506;19.158;2023-05-10T12:22:24;19.20;48.32
67572;SHT31;54397;47.506;19.158;2023-05-10T12:25:49;18.92;48.69
67572;SHT31;54397;47.506;19.158;2023-05-10T12:29:12;18.86;48.66
67572;SHT31;54397;47.506;19.158;2023-05-10T12:32:40;19.24;47.84
67572;SHT31;54397;47.506;19.158;2023-05-10T12:36:05;19.38;47.15
67572;SHT31;54397;47.506;19.158;2023-05-10T12:43:04;19.43;47.34
67572;SHT31;54397;47.506;19.158;2023-05-10T12:46:25;19.58;47.81
67572;SHT31;54397;47.506;19.158;2023-05-10T12:49:49;19.68;47.30
67572;SHT31;54397;47.506;19.158;2023-05-10T12:53:11;19.81;47.71
67572;SHT31;54397;47.506;19.158;2023-05-10T12:56:32;19.93;46.81
67572;SHT31;54397;47.506;19.158;2023-05-10T12:59:57;20.03;46.26
67572;SHT31;54397;47.506;19.158;2023-05-10T13:03:19;20.27;44.92
67572;SHT31;54397;47.506;19.158;2023-05-10T13:06:41;20.54;43.27
67572;SHT31;54397;47.506;19.158;2023-05-10T13:10:03;20.37;43.87
67572;SHT31;54397;47.506;19.158;2023-05-10T13:13:24;20.33;43.35
67572;SHT31;54397;47.506;19.158;2023-05-10T13:16:47;19.89;45.08
67572;SHT31;54397;47.506;19.158;2023-05-10T13:20:09;19.83;45.46
67572;SHT31;54397;47.506;19.158;2023-05-10T13:23:34;20.20;45.64
67572;SHT31;54397;47.506;19.158;2023-05-10T13:26:55;20.63;44.51
67572;SHT31;54397;47.506;19.158;2023-05-10T13:30:22;20.98;44.02
67572;SHT31;54397;47.506;19.158;2023-05-10T13:33:47;21.18;43.59
67572;SHT31;54397;47.506;19.158;2023-05-10T13:37:11;21.12;42.77
67572;SHT31;54397;47.506;19.158;2023-05-10T13:40:33;21.02;42.07
67572;SHT31;54397;47.506;19.158;2023-05-10T13:43:55;20.84;42.45
67572;SHT31;54397;47.506;19.158;2023-05-10T13:47:19;20.58;42.90
67572;SHT31;54397;47.506;19.158;2023-05-10T13:50:44;20.48;43.85
67572;SHT31;54397;47.506;19.158;2023-05-10T13:54:08;20.51;43.13
67572;SHT31;54397;47.506;19.158;2023-05-10T13:57:36;20.67;43.51
67572;SHT31;54397;47.506;19.158;2023-05-10T14:00:58;20.65;42.82
67572;SHT31;54397;47.506;19.158;2023-05-10T14:04:19;20.50;42.01
67572;SHT31;54397;47.506;19.158;2023-05-10T14:07:41;20.05;43.06
67572;SHT31;54397;47.506;19.158;2023-05-10T14:11:03;20.16;42.82
67572;SHT31;54397;47.506;19.158;2023-05-10T14:14:25;20.36;43.41
67572;SHT31;54397;47.506;19.158;2023-05-10T14:17:47;20.36;41.58
67572;SHT31;54397;47.506;19.158;2023-05-10T14:21:09;20.43;41.53
67572;SHT31;54397;47.506;19.158;2023-05-10T14:24:30;20.51;40.35
67572;SHT31;54397;47.506;19.158;2023-05-10T14:27:52;20.40;40.67
67572;SHT31;54397;47.506;19.158;2023-05-10T14:31:16;20.37;40.78
67572;SHT31;54397;47.506;19.158;2023-05-10T14:34:38;20.40;40.63
67572;SHT31;54397;47.506;19.158;2023-05-10T14:38:02;20.37;41.52
67572;SHT31;54397;47.506;19.158;2023-05-10T14:41:24;20.50;42.03
67572;SHT31;54397;47.506;19.158;2023-05-10T14:44:46;20.51;42.66
67572;SHT31;54397;47.506;19.158;2023-05-10T14:48:07;20.31;42.84
67572;SHT31;54397;47.506;19.158;2023-05-10T14:51:32;20.06;43.10
67572;SHT31;54397;47.506;19.158;2023-05-10T14:54:54;19.85;42.87
67572;SHT31;54397;47.506;19.158;2023-05-10T14:58:16;19.69;43.18
67572;SHT31;54397;47.506;19.158;2023-05-10T15:01:38;19.62;43.48
67572;SHT31;54397;47.506;19.158;2023-05-10T15:05:03;19.66;42.12
67572;SHT31;54397;47.506;19.158;2023-05-10T15:08:25;19.66;41.59
67572;SHT31;54397;47.506;19.158;2023-05-10T15:11:47;19.53;42.54
67572;SHT31;54397;47.506;19.158;2023-05-10T15:15:08;19.62;42.70
67572;SHT31;54397;47.506;19.158;2023-05-10T15:18:35;19.78;42.97
67572;SHT31;54397;47.506;19.158;2023-05-10T15:21:56;19.92;42.14
67572;SHT31;54397;47.506;19.158;2023-05-10T15:25:21;19.83;42.77
67572;SHT31;54397;47.506;19.158;2023-05-10T15:28:42;19.74;42.91
67572;SHT31;54397;47.506;19.158;2023-05-10T15:32:06;19.59;43.45
67572;SHT31;54397;47.506;19.158;2023-05-10T15:35:31;19.64;43.80
67572;SHT31;54397;47.506;19.158;2023-05-10T15:38:55;19.48;44.17
67572;SHT31;54397;47.506;19.158;2023-05-10T15:42:17;19.44;44.03
67572;SHT31;54397;47.506;19.158;2023-05-10T15:45:39;19.41;44.96
67572;SHT31;54397;47.506;19.158;2023-05-10T15:49:03;19.48;44.85
67572;SHT31;54397;47.506;19.158;2023-05-10T15:52:25;19.48;44.49
67572;SHT31;54397;47.506;19.158;2023-05-10T15:55:49;19.39;43.65
67572;SHT31;54397;47.506;19.158;2023-05-10T15:59:13;19.13;43.56
67572;SHT31;54397;47.506;19.158;2023-05-10T16:02:35;19.21;44.58
67572;SHT31;54397;47.506;19.158;2023-05-10T16:05:56;19.23;44.38
67572;SHT31;54397;47.506;19.158;2023-05-10T16:09:18;19.30;44.12
67572;SHT31;54397;47.506;19.158;2023-05-10T16:12:42;19.24;44.58
67572;SHT31;54397;47.506;19.158;2023-05-10T16:16:07;19.27;44.10
67572;SHT31;54397;47.506;19.158;2023-05-10T16:19:29;19.24;44.10
67572;SHT31;54397;47.506;19.158;2023-05-10T16:22:54;19.16;44.57
67572;SHT31;54397;47.506;19.158;2023-05-10T16:26:16;19.02;44.99
67572;SHT31;54397;47.506;19.158;2023-05-10T16:29:37;19.04;45.82
67572;SHT31;54397;47.506;19.158;2023-05-10T16:33:02;18.95;46.21
67572;SHT31;54397;47.506;19.158;2023-05-10T16:36:29;18.93;46.57
67572;SHT31;54397;47.506;19.158;2023-05-10T16:39:54;19.00;46.28
67572;SHT31;54397;47.506;19.158;2023-05-10T16:43:16;18.97;46.50
67572;SHT31;54397;47.506;19.158;2023-05-10T16:46:37;18.97;47.13
67572;SHT31;54397;47.506;19.158;2023-05-10T16:50:00;18.90;47.87
67572;SHT31;54397;47.506;19.158;2023-05-10T16:53:22;18.79;48.75
67572;SHT31;54397;47.506;19.158;2023-05-10T16:56:44;18.80;49.06
67572;SHT31;54397;47.506;19.158;2023-05-10T17:00:06;18.73;49.03
67572;SHT31;54397;47.506;19.158;2023-05-10T17:03:28;18.72;48.79
67572;SHT31;54397;47.506;19.158;2023-05-10T17:06:53;18.61;49.66
67572;SHT31;54397;47.506;19.158;2023-05-10T17:10:15;18.56;49.83
67572;SHT31;54397;47.506;19.158;2023-05-10T17:13:37;18.65;49.37
67572;SHT31;54397;47.506;19.158;2023-05-10T17:16:59;18.53;49.54
67572;SHT31;54397;47.506;19.158;2023-05-10T17:20:21;18.48;49.76
67572;SHT31;54397;47.506;19.158;2023-05-10T17:23:42;18.41;50.19
67572;SHT31;54397;47.506;19.158;2023-05-10T17:27:04;18.38;49.94
67572;SHT31;54397;47.506;19.158;2023-05-10T17:30:25;18.44;49.99
67572;SHT31;54397;47.506;19.158;2023-05-10T17:33:49;18.37;49.92
67572;SHT31;54397;47.506;19.158;2023-05-10T17:37:10;18.28;50.37
67572;SHT31;54397;47.506;19.158;2023-05-10T17:40:35;18.20;50.53
67572;SHT31;54397;47.506;19.158;2023-05-10T17:44:00;18.27;50.14
67572;SHT31;54397;47.506;19.158;2023-05-10T17:47:22;18.18;50.44
67572;SHT31;54397;47.506;19.158;2023-05-10T17:50:47;18.11;50.47
67572;SHT31;54397;47.506;19.158;2023-05-10T17:54:11;18.03;50.46
67572;SHT31;54397;47.506;19.158;2023-05-10T17:57:33;18.05;50.36
67572;SHT31;54397;47.506;19.158;2023-05-10T18:00:58;18.03;51.21
67572;SHT31;54397;47.506;19.158;2023-05-10T18:04:22;17.97;51.25
67572;SHT31;54397;47.506;19.158;2023-05-10T18:07:46;17.98;51.42
67572;SHT31;54397;47.506;19.158;2023-05-10T18:11:08;17.98;50.20
67572;SHT31;54397;47.506;19.158;2023-05-10T18:14:30;17.86;50.65
67572;SHT31;54397;47.506;19.158;2023-05-10T18:18:03;17.79;50.16
67572;SHT31;54397;47.506;19.158;2023-05-10T18:21:27;17.77;50.35
67572;SHT31;54397;47.506;19.158;2023-05-10T18:24:51;17.79;50.57
67572;SHT31;54397;47.506;19.158;2023-05-10T18:28:13;17.69;50.84
67572;SHT31;54397;47.506;19.158;2023-05-10T18:31:37;17.62;49.90
67572;SHT31;54397;47.506;19.158;2023-05-10T18:35:00;17.59;50.09
67572;SHT31;54397;47.506;19.158;2023-05-10T18:38:24;17.55;50.44
67572;SHT31;54397;47.506;19.158;2023-05-10T18:41:46;17.43;50.08
67572;SHT31;54397;47.506;19.158;2023-05-10T18:45:10;17.62;58.12
67572;SHT31;54397;47.506;19.158;2023-05-10T18:48:34;17.87;58.00
67572;SHT31;54397;47.506;19.158;2023-05-10T18:52:01;18.21;56.47
67572;SHT31;54397;47.506;19.158;2023-05-10T18:55:23;18.27;50.03
67572;SHT31;54397;47.506;19.158;2023-05-10T18:58:48;18.20;53.65
67572;SHT31;54397;47.506;19.158;2023-05-10T19:02:10;18.14;49.64
67572;SHT31;54397;47.506;19.158;2023-05-10T19:05:32;18.28;51.18
67572;SHT31;54397;47.506;19.158;2023-05-10T19:08:53;18.24;58.46
67572;SHT31;54397;47.506;19.158;2023-05-10T19:12:15;18.69;59.96
67572;SHT31;54397;47.506;19.158;2023-05-10T19:15:36;19.26;57.66
67572;SHT31;54397;47.506;19.158;2023-05-10T19:19:00;19.61;51.09
67572;SHT31;54397;47.506;19.158;2023-05-10T19:22:22;19.58;51.28
67572;SHT31;54397;47.506;19.158;2023-05-10T19:26:04;19.16;52.06
67572;SHT31;54397;47.506;19.158;2023-05-10T19:29:26;19.13;48.05
67572;SHT31;54397;47.506;19.158;2023-05-10T19:32:50;18.73;48.57
67572;SHT31;54397;47.506;19.158;2023-05-10T19:36:12;18.45;49.43
67572;SHT31;54397;47.506;19.158;2023-05-10T19:39:34;18.24;49.62
67572;SHT31;54397;47.506;19.158;2023-05-10T19:42:56;18.07;49.95
67572;SHT31;54397;47.506;19.158;2023-05-10T19:46:18;17.77;50.64
67572;SHT31;54397;47.506;19.158;2023-05-10T19:49:43;17.62;51.19
67572;SHT31;54397;47.506;19.158;2023-05-10T19:53:07;17.52;50.99
67572;SHT31;54397;47.506;19.158;2023-05-10T19:56:33;17.39;51.95
67572;SHT31;54397;47.506;19.158;2023-05-10T19:59:55;17.90;61.25
67572;SHT31;54397;47.506;19.158;2023-05-10T20:03:17;18.40;58.39
67572;SHT31;54397;47.506;19.158;2023-05-10T20:06:39;18.69;59.54
67572;SHT31;54397;47.506;19.158;2023-05-10T20:10:03;18.92;55.26
67572;SHT31;54397;47.506;19.158;2023-05-10T20:13:25;18.99;55.33
67572;SHT31;54397;47.506;19.158;2023-05-10T20:16:46;19.09;51.36
67572;SHT31;54397;47.506;19.158;2023-05-10T20:20:09;18.88;52.07
67572;SHT31;54397;47.506;19.158;2023-05-10T20:23:33;18.88;53.91
67572;SHT31;54397;47.506;19.158;2023-05-10T20:27:01;19.02;50.35
67572;SHT31;54397;47.506;19.158;2023-05-10T20:30:23;18.76;54.42
67572;SHT31;54397;47.506;19.158;2023-05-10T20:33:52;18.75;52.64
67572;SHT31;54397;47.506;19.158;2023-05-10T20:37:14;18.90;54.03
67572;SHT31;54397;47.506;19.158;2023-05-10T20:40:40;18.95;52.82
67572;SHT31;54397;47.506;19.158;2023-05-10T20:44:02;18.69;51.09
67572;SHT31;54397;47.506;19.158;2023-05-10T20:47:25;18.68;52.03
67572;SHT31;54397;47.506;19.158;2023-05-10T20:50:47;18.61;54.75
67572;SHT31;54397;47.506;19.158;2023-05-10T20:54:09;18.59;51.73
67572;SHT31;54397;47.506;19.158;2023-05-10T20:57:31;18.61;52.69
67572;SHT31;54397;47.506;19.158;2023-05-10T21:00:53;18.49;51.74
67572;SHT31;54397;47.506;19.158;2023-05-10T21:04:14;18.44;51.51
67572;SHT31;54397;47.506;19.158;2023-05-10T21:07:36;18.62;52.10
67572;SHT31;54397;47.506;19.158;2023-05-10T21:11:03;18.53;51.49
67572;SHT31;54397;47.506;19.158;2023-05-10T21:14:26;18.22;50.43
67572;SHT31;54397;47.506;19.158;2023-05-10T21:17:55;18.35;52.48
67572;SHT31;54397;47.506;19.158;2023-05-10T21:21:17;18.47;52.22
67572;SHT31;54397;47.506;19.158;2023-05-10T21:24:43;18.27;48.22
67572;SHT31;54397;47.506;19.158;2023-05-10T21:28:05;17.90;49.29
67572;SHT31;54397;47.506;19.158;2023-05-10T21:31:29;17.66;49.40
67572;SHT31;54397;47.506;19.158;2023-05-10T21:34:53;17.34;49.92
67572;SHT31;54397;47.506;19.158;2023-05-10T21:38:16;17.22;50.90
67572;SHT31;54397;47.506;19.158;2023-05-10T21:41:38;17.22;50.90